Time;durP1;ratioP1;P1;durP2;ratioP2;P2;SDS_P1;SDS_P2;PMS_P1;PMS_P2;Temp;Humidity;BMP_temperature;BMP_pressure;BME280_temperature;BME280_humidity;BME280_pressure;Samples;Min_cycle;Max_cycle;Signal;HPM_P1;HPM_P2
2022/03/02 00:01:09;;;;;;;6.25;2.67;;;;;;;;;;4999921;28;20025;-77
2022/03/02 00:03:36;;;;;;;4.78;2.35;;;;;;;;;;5003575;28;20121;-77
2022/03/02 00:06:02;;;;;;;7.47;3.10;;;;;;;;;;5001169;28;20087;-77
2022/03/02 00:08:27;;;;;;;3.30;2.08;;;;;;;;;;5005102;28;20113;-78
2022/03/02 00:10:54;;;;;;;6.55;3.28;;;;;;;;;;5006670;28;20133;-78
2022/03/02 00:13:19;;;;;;;6.75;2.40;;;;;;;;;;5003148;28;20034;-78
2022/03/02 00:15:46;;;;;;;4.03;2.47;;;;;;;;;;5002974;28;20022;-77
2022/03/02 00:18:11;;;;;;;6.03;2.72;;;;;;;;;;5004563;28;20022;-77
2022/03/02 00:20:37;;;;;;;4.28;2.95;;;;;;;;;;5003085;28;20473;-78
2022/03/02 00:23:03;;;;;;;2.05;1.77;;;;;;;;;;5003936;28;20029;-77
2022/03/02 00:25:29;;;;;;;4.80;2.40;;;;;;;;;;5007750;28;20237;-77
2022/03/02 00:27:55;;;;;;;7.80;2.67;;;;;;;;;;5000167;28;20652;-77
2022/03/02 00:30:23;;;;;;;5.50;2.95;;;;;;;;;;5002085;28;20027;-76
2022/03/02 00:32:49;;;;;;;4.88;2.95;;;;;;;;;;5003403;28;20037;-77
2022/03/02 00:35:15;;;;;;;4.80;2.92;;;;;;;;;;5006752;28;20026;-77
2022/03/02 00:37:41;;;;;;;5.28;2.78;;;;;;;;;;5004385;28;20528;-77
2022/03/02 00:40:07;;;;;;;3.08;1.98;;;;;;;;;;5004482;28;20092;-77
2022/03/02 00:42:33;;;;;;;3.83;1.98;;;;;;;;;;5001648;28;20702;-78
2022/03/02 00:44:59;;;;;;;7.07;2.67;;;;;;;;;;5001915;28;20438;-77
2022/03/02 00:47:25;;;;;;;8.38;3.35;;;;;;;;;;5013094;28;20037;-76
2022/03/02 00:49:51;;;;;;;4.68;2.20;;;;;;;;;;5004726;28;20025;-78
2022/03/02 00:52:18;;;;;;;7.32;2.45;;;;;;;;;;5007544;28;20395;-77
2022/03/02 00:54:44;;;;;;;5.22;1.77;;;;;;;;;;5002917;28;20042;-77
2022/03/02 00:57:10;;;;;;;6.50;2.63;;;;;;;;;;5004306;28;20033;-78
2022/03/02 00:59:36;;;;;;;4.85;2.80;;;;;;;;;;5010745;28;20037;-78
2022/03/02 01:02:02;;;;;;;4.20;2.22;;;;;;;;;;5007016;28;20026;-78
2022/03/02 01:04:28;;;;;;;6.30;2.40;;;;;;;;;;5004392;28;20022;-78
2022/03/02 01:06:54;;;;;;;2.95;2.22;;;;;;;;;;5006460;28;20548;-78
2022/03/02 01:09:20;;;;;;;7.85;2.42;;;;;;;;;;5006657;28;20105;-78
2022/03/02 01:11:46;;;;;;;3.72;2.35;;;;;;;;;;4999761;28;20112;-77
2022/03/02 01:14:12;;;;;;;4.80;3.10;;;;;;;;;;5001633;28;20041;-77
2022/03/02 01:16:38;;;;;;;4.80;2.55;;;;;;;;;;5004343;28;20029;-78
2022/03/02 01:19:04;;;;;;;6.10;2.67;;;;;;;;;;5006158;28;20034;-77
2022/03/02 01:21:30;;;;;;;7.90;3.63;;;;;;;;;;5004148;28;20030;-78
2022/03/02 01:23:57;;;;;;;5.72;1.88;;;;;;;;;;5001505;28;20030;-77
2022/03/02 01:26:29;;;;;;;6.00;2.58;;;;;;;;;;5007505;28;20229;-77
2022/03/02 01:28:55;;;;;;;8.85;3.08;;;;;;;;;;5004047;28;20033;-76
2022/03/02 01:31:22;;;;;;;8.38;4.13;;;;;;;;;;5003664;28;20516;-76
2022/03/02 01:33:48;;;;;;;3.38;2.47;;;;;;;;;;5001555;28;20030;-77
2022/03/02 01:36:15;;;;;;;5.50;3.03;;;;;;;;;;4998216;28;20658;-78
2022/03/02 01:38:41;;;;;;;6.97;3.70;;;;;;;;;;5007915;28;20026;-77
2022/03/02 01:41:07;;;;;;;3.60;1.92;;;;;;;;;;5002599;28;20849;-78
2022/03/02 01:43:33;;;;;;;5.47;3.03;;;;;;;;;;5003148;28;20054;-78
2022/03/02 01:45:59;;;;;;;5.57;2.97;;;;;;;;;;5001935;28;20061;-77
2022/03/02 01:48:25;;;;;;;3.08;2.05;;;;;;;;;;5006021;28;20489;-77
2022/03/02 01:50:50;;;;;;;6.32;3.17;;;-1.70;99.90;;;;;;5005385;28;20394;-78
2022/03/02 01:53:16;;;;;;;6.72;4.00;;;;;;;;;;5006337;28;20049;-78
2022/03/02 01:55:44;;;;;;;10.30;4.55;;;;;;;;;;5000125;28;20053;-79
2022/03/02 01:58:10;;;;;;;9.13;4.22;;;;;;;;;;5002693;28;20033;-77
2022/03/02 02:00:36;;;;;;;6.00;2.97;;;;;;;;;;5003701;28;20080;-77
2022/03/02 02:03:02;;;;;;;5.93;2.70;;;;;;;;;;5005840;28;20030;-78
2022/03/02 02:05:28;;;;;;;8.73;3.50;;;;;;;;;;5003911;28;20627;-79
2022/03/02 02:07:54;;;;;;;7.30;2.88;;;;;;;;;;5010112;28;20022;-77
2022/03/02 02:10:20;;;;;;;5.45;3.33;;;-1.50;99.90;;;;;;5003503;28;20052;-76
2022/03/02 02:12:46;;;;;;;5.57;2.53;;;;;;;;;;5000045;28;20081;-77
2022/03/02 02:15:12;;;;;;;6.80;3.85;;;;;;;;;;5000552;28;20018;-77
2022/03/02 02:17:38;;;;;;;5.65;2.33;;;;;;;;;;5003791;28;20037;-79
2022/03/02 02:20:06;;;;;;;5.68;3.08;;;;;;;;;;5001673;28;20057;-78
2022/03/02 02:22:32;;;;;;;5.25;2.70;;;;;;;;;;5003553;28;20022;-77
2022/03/02 02:24:58;;;;;;;12.57;2.58;;;;;;;;;;5005446;28;20069;-77
2022/03/02 02:27:24;;;;;;;5.22;2.80;;;;;;;;;;5003124;28;20054;-78
2022/03/02 02:29:50;;;;;;;4.22;2.60;;;;;;;;;;5009860;28;20030;-77
2022/03/02 02:32:16;;;;;;;5.43;2.97;;;;;;;;;;5008990;28;20056;-77
2022/03/02 02:34:42;;;;;;;4.47;2.60;;;;;;;;;;5005973;28;20498;-77
2022/03/02 02:37:09;;;;;;;6.13;3.90;;;;;;;;;;5003826;28;20121;-77
2022/03/02 02:39:37;;;;;;;4.60;2.72;;;;;;;;;;5003669;28;20026;-78
2022/03/02 02:42:04;;;;;;;5.93;3.10;;;;;;;;;;5002549;28;20092;-78
2022/03/02 02:44:31;;;;;;;9.00;3.00;;;;;;;;;;5006908;28;20056;-79
2022/03/02 02:46:57;;;;;;;6.30;2.53;;;;;;;;;;5007398;28;20026;-78
2022/03/02 02:49:24;;;;;;;7.43;2.85;;;;;;;;;;5003328;28;20576;-77
2022/03/02 02:51:50;;;;;;;10.75;4.38;;;;;;;;;;5001119;28;20029;-78
2022/03/02 02:54:17;;;;;;;11.95;2.70;;;;;;;;;;4996934;28;20099;-78
2022/03/02 02:56:43;;;;;;;3.40;2.25;;;;;;;;;;5003190;28;20018;-77
2022/03/02 02:59:09;;;;;;;5.75;2.28;;;;;;;;;;5001174;28;20492;-77
2022/03/02 03:01:35;;;;;;;4.75;3.13;;;;;;;;;;5008322;28;20485;-78
2022/03/02 03:04:00;;;;;;;4.03;2.60;;;-2.40;99.90;;;;;;5007447;28;20044;-77
2022/03/02 03:06:26;;;;;;;6.40;2.88;;;;;;;;;;5007800;28;20486;-78
2022/03/02 03:08:52;;;;;;;4.82;2.75;;;;;;;;;;5003102;28;20037;-79
2022/03/02 03:11:19;;;;;;;11.55;4.45;;;;;;;;;;5008944;28;20041;-77
2022/03/02 03:13:45;;;;;;;4.32;2.75;;;;;;;;;;5005664;28;20045;-78
2022/03/02 03:16:11;;;;;;;4.32;2.38;;;;;;;;;;5005677;28;20029;-78
2022/03/02 03:18:37;;;;;;;10.98;2.83;;;;;;;;;;5004004;28;20045;-78
2022/03/02 03:21:03;;;;;;;5.78;3.47;;;;;;;;;;5007064;28;20029;-76
2022/03/02 03:23:28;;;;;;;4.50;2.92;;;-2.50;99.90;;;;;;5004676;28;20034;-78
2022/03/02 03:25:54;;;;;;;8.20;2.70;;;;;;;;;;5007490;28;20390;-78
2022/03/02 03:28:20;;;;;;;3.03;2.53;;;;;;;;;;5006890;28;20116;-78
2022/03/02 03:30:46;;;;;;;4.07;2.60;;;;;;;;;;5005847;28;20117;-77
2022/03/02 03:33:12;;;;;;;4.25;2.92;;;;;;;;;;5010668;28;20050;-77
2022/03/02 03:35:38;;;;;;;5.40;3.47;;;;;;;;;;5008169;28;20430;-78
2022/03/02 03:38:05;;;;;;;5.45;2.85;;;;;;;;;;5008917;28;20032;-77
2022/03/02 03:40:31;;;;;;;4.50;3.03;;;;;;;;;;5003782;28;20033;-77
2022/03/02 03:42:57;;;;;;;6.35;3.05;;;;;;;;;;5003027;28;20029;-77
2022/03/02 03:45:23;;;;;;;6.53;2.83;;;;;;;;;;5002836;28;20030;-76
2022/03/02 03:47:49;;;;;;;7.40;3.13;;;;;;;;;;5008020;28;20072;-77
2022/03/02 03:50:15;;;;;;;6.88;3.63;;;;;;;;;;5004644;28;20037;-78
2022/03/02 03:52:41;;;;;;;3.70;2.17;;;;;;;;;;5008606;28;20434;-78
2022/03/02 03:55:09;;;;;;;6.80;3.97;;;-2.60;99.90;;;;;;5007329;28;20033;-78
2022/03/02 03:57:35;;;;;;;8.38;3.10;;;;;;;;;;5004597;28;20029;-78
2022/03/02 04:00:01;;;;;;;3.65;2.65;;;;;;;;;;5008028;28;20166;-79
2022/03/02 04:02:27;;;;;;;5.57;3.33;;;;;;;;;;4995079;28;20487;-77
2022/03/02 04:04:53;;;;;;;6.18;2.75;;;;;;;;;;5001269;28;20189;-78
2022/03/02 04:07:19;;;;;;;5.28;2.42;;;;;;;;;;5000570;28;20037;-78
2022/03/02 04:09:45;;;;;;;3.15;2.40;;;;;;;;;;5001272;28;20489;-77
2022/03/02 04:12:11;;;;;;;7.30;2.50;;;;;;;;;;4998380;28;20031;-78
2022/03/02 04:14:37;;;;;;;6.70;2.78;;;;;;;;;;4999174;28;20060;-78
2022/03/02 04:17:03;;;;;;;7.18;3.00;;;-3.10;99.90;;;;;;5005818;28;20054;-78
2022/03/02 04:19:29;;;;;;;6.00;2.28;;;;;;;;;;5003328;28;20084;-76
2022/03/02 04:21:55;;;;;;;6.32;2.55;;;;;;;;;;4998908;28;20068;-78
2022/03/02 04:24:21;;;;;;;5.93;3.00;;;;;;;;;;5004953;28;20025;-78
2022/03/02 04:26:46;;;;;;;5.68;2.97;;;;;;;;;;5001452;28;20049;-78
2022/03/02 04:29:12;;;;;;;5.13;2.20;;;;;;;;;;5000802;28;20033;-77
2022/03/02 04:31:38;;;;;;;2.42;2.22;;;;;;;;;;5001546;28;20490;-77
2022/03/02 04:34:04;;;;;;;1.98;1.73;;;;;;;;;;5000099;28;20540;-78
2022/03/02 04:36:30;;;;;;;3.25;2.28;;;;;;;;;;4992971;28;20026;-78
2022/03/02 04:38:57;;;;;;;10.77;2.83;;;;;;;;;;5001882;28;20041;-78
2022/03/02 04:41:24;;;;;;;6.38;2.58;;;;;;;;;;5001757;28;20026;-76
2022/03/02 04:43:50;;;;;;;4.38;2.38;;;;;;;;;;4996578;28;20030;-78
2022/03/02 04:46:16;;;;;;;3.53;2.00;;;;;;;;;;5005790;28;20045;-78
2022/03/02 04:48:42;;;;;;;4.55;2.08;;;;;;;;;;5006380;28;20144;-77
2022/03/02 04:51:08;;;;;;;4.00;2.80;;;;;;;;;;4997239;28;20030;-77
2022/03/02 04:53:34;;;;;;;3.42;2.95;;;;;;;;;;5000375;28;20041;-78
2022/03/02 04:56:00;;;;;;;3.42;2.55;;;;;;;;;;5001174;28;20062;-78
2022/03/02 04:58:26;;;;;;;7.88;2.85;;;;;;;;;;4999765;28;20054;-77
2022/03/02 05:00:52;;;;;;;3.25;2.30;;;;;;;;;;5005046;28;21002;-77
2022/03/02 05:03:18;;;;;;;5.40;2.58;;;;;;;;;;5003942;28;20402;-77
2022/03/02 05:05:44;;;;;;;3.40;2.20;;;;;;;;;;4999459;28;20040;-78
2022/03/02 05:08:10;;;;;;;3.05;2.05;;;;;;;;;;5004449;28;20096;-77
2022/03/02 05:10:37;;;;;;;3.92;2.60;;;;;;;;;;5003115;28;20625;-78
2022/03/02 05:13:03;;;;;;;5.45;2.53;;;;;;;;;;4996702;28;20409;-78
2022/03/02 05:15:30;;;;;;;4.93;2.08;;;;;;;;;;4999232;28;20513;-78
2022/03/02 05:17:56;;;;;;;7.43;2.67;;;;;;;;;;5006946;28;20445;-78
2022/03/02 05:20:22;;;;;;;4.65;3.28;;;;;;;;;;4999887;28;20044;-78
2022/03/02 05:22:49;;;;;;;4.28;3.20;;;;;;;;;;5004402;28;20030;-77
2022/03/02 05:25:16;;;;;;;5.57;2.58;;;;;;;;;;5005556;28;20114;-78
2022/03/02 05:27:42;;;;;;;5.95;2.58;;;;;;;;;;5007540;28;20108;-78
2022/03/02 05:30:10;;;;;;;3.25;2.40;;;-3.40;99.90;;;;;;5008164;28;20026;-78
2022/03/02 05:32:36;;;;;;;4.57;2.83;;;;;;;;;;4997135;28;20108;-78
2022/03/02 05:35:03;;;;;;;3.30;2.45;;;;;;;;;;4997324;28;20037;-77
2022/03/02 05:37:28;;;;;;;3.67;3.13;;;;;;;;;;5002388;28;20054;-80
2022/03/02 05:39:54;;;;;;;4.88;2.72;;;;;;;;;;5008844;28;20112;-78
2022/03/02 05:42:20;;;;;;;2.53;2.22;;;;;;;;;;5005374;28;20051;-77
2022/03/02 05:44:46;;;;;;;1.88;1.58;;;;;;;;;;4991300;28;20030;-77
2022/03/02 05:47:13;;;;;;;5.82;3.42;;;;;;;;;;4991152;28;20045;-78
2022/03/02 05:49:39;;;;;;;5.75;2.83;;;;;;;;;;5004694;28;20027;-78
2022/03/02 05:52:05;;;;;;;5.60;2.72;;;;;;;;;;5004485;28;20030;-78
2022/03/02 05:54:31;;;;;;;8.30;2.80;;;;;;;;;;5007214;28;20034;-77
2022/03/02 05:56:57;;;;;;;4.25;1.92;;;;;;;;;;4999892;28;20492;-78
2022/03/02 05:59:23;;;;;;;5.18;3.10;;;;;;;;;;5008364;28;20152;-78
2022/03/02 06:01:49;;;;;;;4.90;3.20;;;;;;;;;;5008906;28;20038;-77
2022/03/02 06:04:15;;;;;;;5.28;2.83;;;;;;;;;;5003333;28;20030;-78
2022/03/02 06:06:42;;;;;;;4.65;2.33;;;;;;;;;;5002796;28;20037;-77
2022/03/02 06:09:09;;;;;;;7.45;3.03;;;;;;;;;;4999010;28;20045;-78
2022/03/02 06:11:36;;;;;;;7.00;2.25;;;;;;;;;;4997202;28;20038;-77
2022/03/02 06:14:03;;;;;;;5.20;3.78;;;;;;;;;;5000771;28;20053;-78
2022/03/02 06:16:29;;;;;;;8.52;3.53;;;;;;;;;;5005002;28;20026;-77
2022/03/02 06:18:55;;;;;;;4.28;3.03;;;;;;;;;;5003414;28;20093;-78
2022/03/02 06:21:25;;;;;;;4.90;3.03;;;;;;;;;;4998562;28;23728;-78
2022/03/02 06:23:51;;;;;;;7.53;3.05;;;;;;;;;;5002250;28;20105;-77
2022/03/02 06:26:22;;;;;;;4.85;2.95;;;-2.40;99.90;;;;;;5005380;28;20121;-78
2022/03/02 06:28:48;;;;;;;3.88;2.47;;;;;;;;;;5003647;28;20086;-79
2022/03/02 06:31:14;;;;;;;2.28;1.98;;;;;;;;;;5017614;28;20033;-79
2022/03/02 06:33:40;;;;;;;3.90;2.65;;;;;;;;;;5011658;28;20040;-78
2022/03/02 06:36:07;;;;;;;4.65;2.92;;;;;;;;;;5018601;28;20446;-79
2022/03/02 06:38:33;;;;;;;4.30;2.85;;;;;;;;;;5016897;28;20037;-78
2022/03/02 06:41:03;;;;;;;3.72;1.88;;;;;;;;;;5020235;28;20025;-78
2022/03/02 06:43:33;;;;;;;6.28;2.75;;;;;;;;;;5013184;28;20034;-78
2022/03/02 06:46:01;;;;;;;5.80;2.92;;;;;;;;;;5016214;28;20038;-78
2022/03/02 06:48:31;;;;;;;5.78;3.88;;;;;;;;;;5016201;28;20112;-78
2022/03/02 06:51:00;;;;;;;6.35;3.60;;;;;;;;;;5014952;28;20026;-78
2022/03/02 06:53:35;;;;;;;5.13;3.90;;;;;;;;;;5014118;28;20038;-78
2022/03/02 06:56:07;;;;;;;3.60;2.90;;;;;;;;;;5015285;28;21704;-78
2022/03/02 06:58:41;;;;;;;6.50;3.05;;;;;;;;;;5019053;28;20080;-78
2022/03/02 07:01:09;;;;;;;8.05;2.97;;;-1.90;99.90;;;;;;5017314;28;20033;-78
2022/03/02 07:03:40;;;;;;;6.03;2.85;;;;;;;;;;5011552;28;20038;-78
2022/03/02 07:06:06;;;;;;;8.38;3.33;;;;;;;;;;5011967;28;20104;-78
2022/03/02 07:08:33;;;;;;;5.13;3.78;;;;;;;;;;5009039;28;20041;-79
2022/03/02 07:11:00;;;;;;;3.95;2.28;;;;;;;;;;5014453;28;20033;-79
2022/03/02 07:13:28;;;;;;;4.15;2.55;;;;;;;;;;5013941;28;20554;-79
2022/03/02 07:15:54;;;;;;;4.80;3.15;;;;;;;;;;5015256;28;20022;-79
2022/03/02 07:18:20;;;;;;;3.47;1.85;;;;;;;;;;5010022;28;20037;-79
2022/03/02 07:20:47;;;;;;;5.97;2.25;;;;;;;;;;5016864;28;20037;-79
2022/03/02 07:23:16;;;;;;;6.60;3.78;;;-0.60;99.90;;;;;;5016703;28;20105;-78
2022/03/02 07:25:44;;;;;;;7.15;4.53;;;;;;;;;;5019805;28;20029;-79
2022/03/02 07:28:11;;;;;;;7.03;3.13;;;;;;;;;;5011809;28;20061;-79
2022/03/02 07:30:37;;;;;;;11.10;3.95;;;;;;;;;;5021517;28;20030;-79
2022/03/02 07:33:04;;;;;;;7.88;3.97;;;;;;;;;;5021097;28;20034;-78
2022/03/02 07:35:32;;;;;;;6.18;2.80;;;;;;;;;;5013913;28;20061;-79
2022/03/02 07:37:58;;;;;;;6.85;3.13;;;;;;;;;;5016255;28;20434;-79
2022/03/02 07:40:24;;;;;;;5.88;3.05;;;;;;;;;;5017288;28;20086;-78
2022/03/02 07:42:50;;;;;;;5.47;2.60;;;;;;;;;;5012065;28;20075;-79
2022/03/02 07:45:16;;;;;;;5.78;3.05;;;;;;;;;;5013187;28;20026;-79
2022/03/02 07:47:43;;;;;;;6.68;3.65;;;;;;;;;;5020621;28;20038;-79
2022/03/02 07:50:09;;;;;;;5.53;2.78;;;;;;;;;;5016942;28;20029;-79
2022/03/02 07:52:37;;;;;;;7.40;1.98;;;;;;;;;;5015070;28;20542;-79
2022/03/02 07:55:07;;;;;;;7.32;2.58;;;;;;;;;;5014600;28;20049;-78
2022/03/02 07:57:33;;;;;;;7.50;2.90;;;;;;;;;;5011448;28;20522;-78
2022/03/02 07:59:59;;;;;;;6.20;4.00;;;;;;;;;;5012115;28;20026;-78
2022/03/02 08:02:26;;;;;;;6.90;2.88;;;;;;;;;;5012344;28;20022;-78
2022/03/02 08:04:53;;;;;;;7.68;3.30;;;;;;;;;;5009487;28;20037;-78
2022/03/02 08:07:19;;;;;;;4.72;3.22;;;;;;;;;;5009385;28;20044;-78
2022/03/02 08:09:45;;;;;;;6.53;3.15;;;;;;;;;;5009916;28;20028;-79
2022/03/02 08:12:12;;;;;;;9.98;3.83;;;;;;;;;;5009288;28;20053;-79
2022/03/02 08:14:38;;;;;;;4.18;2.58;;;;;;;;;;5008376;28;20513;-77
2022/03/02 08:17:04;;;;;;;6.70;3.60;;;;;;;;;;5013804;28;20041;-80
2022/03/02 08:19:31;;;;;;;5.50;3.30;;;;;;;;;;5012802;28;20022;-80
2022/03/02 08:21:58;;;;;;;7.65;3.90;;;;;;;;;;5013880;28;20544;-78
2022/03/02 08:24:27;;;;;;;9.25;3.58;;;;;;;;;;5013039;28;20034;-80
2022/03/02 08:26:56;;;;;;;7.28;3.30;;;;;;;;;;5014328;28;20026;-80
2022/03/02 08:29:23;;;;;;;5.93;3.08;;;;;;;;;;5011785;28;20029;-80
2022/03/02 08:31:49;;;;;;;5.75;3.67;;;;;;;;;;5011970;28;20041;-80
2022/03/02 08:34:16;;;;;;;9.38;3.88;;;;;;;;;;5009322;28;20044;-81
2022/03/02 08:36:43;;;;;;;6.05;3.33;;;;;;;;;;5012848;28;20176;-80
2022/03/02 08:39:12;;;;;;;6.63;3.05;;;3.80;99.90;;;;;;5016823;28;20072;-79
2022/03/02 08:41:39;;;;;;;8.23;4.03;;;;;;;;;;5015561;28;20491;-80
2022/03/02 08:44:06;;;;;;;7.35;2.85;;;;;;;;;;5017409;28;20494;-79
2022/03/02 08:46:32;;;;;;;3.70;2.35;;;;;;;;;;5020508;28;20628;-79
2022/03/02 08:48:58;;;;;;;5.95;2.97;;;;;;;;;;5014521;28;20034;-79
2022/03/02 08:51:25;;;;;;;7.57;3.50;;;;;;;;;;5011093;28;20042;-79
2022/03/02 08:53:51;;;;;;;6.38;3.28;;;;;;;;;;5018043;28;20050;-80
2022/03/02 08:56:18;;;;;;;6.20;2.97;;;;;;;;;;5019803;28;20912;-79
2022/03/02 08:58:44;;;;;;;6.65;3.40;;;;;;;;;;5015172;28;20057;-79
2022/03/02 09:01:11;;;;;;;6.25;3.42;;;;;;;;;;5021644;28;20033;-79
2022/03/02 09:03:39;;;;;;;6.57;2.65;;;;;;;;;;5021717;28;20038;-79
2022/03/02 09:06:07;;;;;;;7.75;3.65;;;;;;;;;;5014382;28;20049;-79
2022/03/02 09:08:33;;;;;;;5.70;3.00;;;;;;;;;;5020371;28;20058;-79
2022/03/02 09:11:00;;;;;;;6.30;3.55;;;;;;;;;;5022744;28;20081;-79
2022/03/02 09:13:26;;;;;;;8.10;2.92;;;;;;;;;;5019083;28;20076;-79
2022/03/02 09:15:52;;;;;;;6.70;3.00;;;;;;;;;;5026379;28;20040;-79
2022/03/02 09:18:18;;;;;;;5.00;2.80;;;;;;;;;;5026944;28;20038;-79
2022/03/02 09:20:46;;;;;;;5.15;2.40;;;;;;;;;;5031355;28;20045;-79
2022/03/02 09:23:12;;;;;;;6.43;2.78;;;;;;;;;;5025366;28;20019;-79
2022/03/02 09:25:39;;;;;;;7.85;2.78;;;;;;;;;;5030539;28;20029;-80
2022/03/02 09:28:05;;;;;;;12.00;3.33;;;;;;;;;;5017481;28;20029;-79
2022/03/02 09:30:31;;;;;;;5.57;2.85;;;;;;;;;;5026204;28;20141;-80
2022/03/02 09:32:59;;;;;;;6.07;2.65;;;;;;;;;;5018741;28;20026;-80
2022/03/02 09:35:26;;;;;;;7.03;2.90;;;;;;;;;;5015442;28;20056;-79
2022/03/02 09:37:54;;;;;;;7.20;2.25;;;;;;;;;;5021026;28;20040;-80
2022/03/02 09:40:22;;;;;;;5.32;2.75;;;;;;;;;;5018731;28;20041;-79
2022/03/02 09:42:54;;;;;;;5.03;2.53;;;;;;;;;;5020791;28;20453;-81
2022/03/02 09:45:21;;;;;;;7.97;3.45;;;7.50;95.90;;;;;;5022479;28;20034;-79
2022/03/02 09:47:53;;;;;;;4.00;2.45;;;7.60;96.90;;;;;;5015394;28;20038;-79
2022/03/02 09:50:20;;;;;;;4.67;2.37;;;;;;;;;;5019457;28;20437;-81
2022/03/02 09:52:47;;;;;;;5.13;2.60;;;;;;;;;;5021831;28;20080;-80
2022/03/02 09:55:14;;;;;;;10.23;3.90;;;;;;;;;;5016945;28;20033;-79
2022/03/02 09:57:46;;;;;;;6.03;2.42;;;;;;;;;;5015391;28;20072;-81
2022/03/02 10:00:13;;;;;;;4.90;2.28;;;;;;;;;;5019418;28;20026;-80
2022/03/02 10:02:40;;;;;;;6.20;2.72;;;;;;;;;;5019731;28;20093;-80
2022/03/02 10:05:11;;;;;;;4.38;2.22;;;;;;;;;;5022713;28;20030;-80
2022/03/02 10:07:40;;;;;;;4.32;2.22;;;;;;;;;;5014547;28;20026;-79
2022/03/02 10:10:06;;;;;;;4.40;2.42;;;;;;;;;;5014540;28;20034;-80
2022/03/02 10:12:32;;;;;;;5.72;3.03;;;;;;;;;;5011806;28;20026;-79
2022/03/02 10:14:59;;;;;;;4.45;2.17;;;6.50;94.80;;;;;;5018424;28;20057;-79
2022/03/02 10:17:29;;;;;;;10.55;2.83;;;;;;;;;;5022657;28;20018;-80
2022/03/02 10:19:56;;;;;;;8.63;2.80;;;;;;;;;;5022167;28;20028;-80
2022/03/02 10:22:45;;;;;;;3.15;1.85;;;;;;;;;;5014595;28;20113;-82
2022/03/02 10:25:12;;;;;;;9.80;3.65;;;;;;;;;;5021512;28;20033;-80
2022/03/02 10:27:48;;;;;;;13.55;4.38;;;;;;;;;;5016182;28;20018;-81
2022/03/02 10:30:16;;;;;;;8.07;2.75;;;;;;;;;;5016464;28;20054;-81
2022/03/02 10:32:43;;;;;;;6.47;3.13;;;;;;;;;;5016385;28;20026;-82
2022/03/02 10:35:13;;;;;;;6.25;2.03;;;;;;;;;;5018287;28;20060;-82
2022/03/02 10:37:41;;;;;;;5.65;2.67;;;;;;;;;;5016583;28;20072;-81
2022/03/02 10:40:09;;;;;;;9.40;2.90;;;;;;;;;;5014383;28;20068;-82
2022/03/02 10:42:37;;;;;;;5.88;2.63;;;;;;;;;;5014398;28;20053;-82
2022/03/02 10:45:06;;;;;;;9.75;2.92;;;;;;;;;;5020717;28;20030;-82
2022/03/02 10:47:33;;;;;;;6.93;2.88;;;;;;;;;;5018182;28;20036;-81
2022/03/02 10:50:02;;;;;;;7.05;3.03;;;;;;;;;;5019431;28;20029;-82
2022/03/02 10:52:29;;;;;;;6.03;2.38;;;;;;;;;;5014737;28;20034;-82
2022/03/02 10:55:01;;;;;;;7.25;2.88;;;;;;;;;;5018925;28;20185;-81
2022/03/02 10:57:27;;;;;;;9.43;3.17;;;;;;;;;;5013049;28;20279;-83
2022/03/02 10:59:55;;;;;;;4.93;2.60;;;;;;;;;;5018038;28;20296;-81
2022/03/02 11:02:24;;;;;;;3.63;2.30;;;;;;;;;;5020978;28;20022;-81
2022/03/02 11:04:54;;;;;;;5.38;2.50;;;;;;;;;;5016608;28;20026;-81
2022/03/02 11:07:21;;;;;;;6.63;2.20;;;;;;;;;;5017069;28;20026;-81
2022/03/02 11:09:49;;;;;;;5.60;2.60;;;;;;;;;;5024664;28;20030;-82
2022/03/02 11:12:15;;;;;;;5.45;2.92;;;;;;;;;;5017734;28;20041;-81
2022/03/02 11:15:02;;;;;;;7.70;3.15;;;;;;;;;;5019187;28;20069;-81
2022/03/02 11:17:28;;;;;;;6.10;2.78;;;;;;;;;;5017362;28;20545;-81
2022/03/02 11:19:56;;;;;;;5.03;2.70;;;7.80;90.20;;;;;;5013536;28;20130;-82
2022/03/02 11:22:24;;;;;;;6.70;2.47;;;7.80;91.40;;;;;;5020142;28;20038;-81
2022/03/02 11:24:55;;;;;;;4.53;2.25;;;;;;;;;;5015453;28;20026;-82
2022/03/02 11:27:40;;;;;;;8.55;3.03;;;7.90;91.60;;;;;;5018724;28;20041;-81
2022/03/02 11:30:08;;;;;;;5.13;2.53;;;;;;;;;;5021319;28;20041;-81
2022/03/02 11:32:35;;;;;;;5.00;2.97;;;;;;;;;;5018892;28;20030;-81
2022/03/02 11:35:03;;;;;;;6.40;2.22;;;;;;;;;;5023005;28;20042;-80
2022/03/02 11:37:31;;;;;;;5.80;2.10;;;;;;;;;;5024082;28;20021;-80
2022/03/02 11:39:57;;;;;;;4.90;2.33;;;;;;;;;;5022813;28;20033;-80
2022/03/02 11:42:34;;;;;;;7.72;2.70;;;;;;;;;;5018229;28;20034;-81
2022/03/02 11:45:02;;;;;;;6.25;3.03;;;;;;;;;;5019396;28;20116;-80
2022/03/02 11:47:43;;;;;;;2.75;1.85;;;;;;;;;;5020197;28;20654;-80
2022/03/02 11:50:11;;;;;;;7.30;2.75;;;;;;;;;;5009598;28;20056;-81
2022/03/02 11:52:43;;;;;;;4.22;1.95;;;;;;;;;;5014203;28;20025;-79
2022/03/02 11:55:10;;;;;;;5.18;2.88;;;;;;;;;;5016553;28;20069;-81
2022/03/02 11:57:57;;;;;;;9.48;3.30;;;;;;;;;;5014098;28;20028;-80
2022/03/02 12:00:24;;;;;;;9.10;3.60;;;;;;;;;;5017306;28;20053;-82
2022/03/02 12:02:52;;;;;;;5.03;2.28;;;;;;;;;;5016055;28;20037;-81
2022/03/02 12:05:19;;;;;;;7.00;2.95;;;;;;;;;;5010580;28;20034;-83
2022/03/02 12:07:46;;;;;;;5.00;2.65;;;;;;;;;;5018285;28;20485;-82
2022/03/02 12:10:26;;;;;;;5.47;3.03;;;;;;;;;;5019445;28;20101;-82
2022/03/02 12:12:53;;;;;;;7.45;2.67;;;6.50;90.10;;;;;;5010047;28;20508;-82
2022/03/02 12:15:20;;;;;;;7.35;2.20;;;;;;;;;;5019776;28;20050;-81
2022/03/02 12:17:48;;;;;;;7.32;2.90;;;;;;;;;;5019878;28;20037;-82
2022/03/02 12:20:19;;;;;;;5.10;2.95;;;;;;;;;;5016648;28;20030;-81
2022/03/02 12:22:48;;;;;;;4.47;2.60;;;;;;;;;;5012088;28;20525;-82
2022/03/02 12:25:16;;;;;;;7.00;2.95;;;;;;;;;;5019535;28;20037;-82
2022/03/02 12:27:42;;;;;;;5.60;2.55;;;;;;;;;;5011590;28;20018;-84
2022/03/02 12:30:10;;;;;;;5.82;2.85;;;;;;;;;;5014273;28;20033;-81
2022/03/02 12:32:38;;;;;;;6.25;2.75;;;;;;;;;;5016651;28;20068;-82
2022/03/02 12:35:05;;;;;;;7.28;2.28;;;;;;;;;;5012301;28;20037;-82
2022/03/02 12:37:32;;;;;;;8.18;2.72;;;;;;;;;;5011525;28;20037;-82
2022/03/02 12:39:58;;;;;;;6.38;2.38;;;;;;;;;;5020811;28;20057;-83
2022/03/02 12:42:24;;;;;;;8.73;3.97;;;;;;;;;;5016206;28;20033;-81
2022/03/02 12:44:55;;;;;;;8.23;3.17;;;;;;;;;;5018592;28;21091;-82
2022/03/02 12:47:26;;;;;;;4.90;2.00;;;;;;;;;;5019980;28;20470;-81
2022/03/02 12:49:52;;;;;;;7.75;2.95;;;;;;;;;;5016065;28;20065;-82
2022/03/02 12:52:22;;;;;;;8.35;2.95;;;;;;;;;;5018056;28;20038;-82
2022/03/02 12:54:52;;;;;;;7.28;2.75;;;;;;;;;;5016144;28;20042;-80
2022/03/02 12:57:19;;;;;;;7.40;2.97;;;;;;;;;;5017612;28;20291;-80
2022/03/02 12:59:45;;;;;;;6.57;2.70;;;;;;;;;;5015361;28;20046;-81
2022/03/02 13:02:12;;;;;;;9.00;2.58;;;;;;;;;;5020825;28;20536;-82
2022/03/02 13:05:11;;;;;;;5.93;2.88;;;7.40;88.00;;;;;;5012352;28;20477;-82
2022/03/02 13:07:56;;;;;;;12.93;3.58;;;;;;;;;;5017050;28;20030;-81
2022/03/02 13:10:23;;;;;;;7.07;2.90;;;;;;;;;;5007508;28;20329;-82
2022/03/02 13:12:53;;;;;;;9.75;2.63;;;;;;;;;;5008964;28;20049;-82
2022/03/02 13:15:21;;;;;;;7.38;3.42;;;;;;;;;;5011463;28;20033;-81
2022/03/02 13:17:47;;;;;;;7.88;3.65;;;;;;;;;;5011025;28;21514;-83
2022/03/02 13:20:17;;;;;;;8.23;2.58;;;;;;;;;;5008498;28;20049;-84
2022/03/02 13:22:43;;;;;;;5.13;2.63;;;;;;;;;;5023384;28;20402;-82
2022/03/02 13:25:10;;;;;;;7.28;3.17;;;;;;;;;;5023382;28;20060;-82
2022/03/02 13:27:56;;;;;;;4.60;2.72;;;;;;;;;;5020585;28;20034;-82
2022/03/02 13:30:22;;;;;;;4.53;2.60;;;;;;;;;;5006652;28;20397;-83
2022/03/02 13:32:54;;;;;;;5.25;2.95;;;;;;;;;;5007356;28;20113;-81
2022/03/02 13:35:24;;;;;;;7.82;3.35;;;;;;;;;;5011123;28;20057;-82
2022/03/02 13:38:10;;;;;;;8.75;3.25;;;8.20;90.30;;;;;;5010485;28;20049;-84
2022/03/02 13:40:36;;;;;;;9.52;3.75;;;;;;;;;;5017516;28;20255;-81
2022/03/02 13:43:05;;;;;;;7.55;3.95;;;;;;;;;;5013452;28;20021;-82
2022/03/02 13:45:32;;;;;;;7.20;2.58;;;;;;;;;;5021730;28;20029;-83
2022/03/02 13:48:17;;;;;;;10.70;3.28;;;;;;;;;;5012421;28;20022;-81
2022/03/02 13:51:02;;;;;;;6.55;2.90;;;;;;;;;;5016393;28;20026;-82
2022/03/02 13:53:36;;;;;;;7.95;3.10;;;8.30;90.90;;;;;;5022989;28;20092;-82
2022/03/02 13:56:05;;;;;;;8.63;3.53;;;;;;;;;;5018146;28;20022;-82
2022/03/02 13:58:32;;;;;;;11.07;3.85;;;;;;;;;;5005589;28;20056;-82
2022/03/02 14:01:18;;;;;;;7.10;2.88;;;;;;;;;;5021037;28;20021;-82
2022/03/02 14:03:46;;;;;;;7.63;3.47;;;;;;;;;;5017104;28;20032;-81
2022/03/02 14:06:14;;;;;;;16.63;3.65;;;;;;;;;;5019820;28;20026;-82
2022/03/02 14:08:47;;;;;;;7.82;3.83;;;;;;;;;;5020104;28;20034;-82
2022/03/02 14:11:32;;;;;;;6.67;3.43;;;;;;;;;;5013148;28;20481;-81
2022/03/02 14:13:58;;;;;;;7.78;3.53;;;;;;;;;;5018856;28;20776;-81
2022/03/02 14:16:25;;;;;;;9.85;3.83;;;8.00;91.60;;;;;;5019457;28;20038;-81
2022/03/02 14:19:11;;;;;;;8.60;3.67;;;7.20;91.10;;;;;;5019058;28;20029;-81
2022/03/02 14:21:38;;;;;;;6.55;2.85;;;;;;;;;;5005420;28;20036;-81
2022/03/02 14:24:12;;;;;;;9.52;3.05;;;;;;;;;;4992879;28;20190;-81
2022/03/02 14:26:50;;;;;;;7.97;3.80;;;;;;;;;;5012820;28;20232;-82
2022/03/02 14:29:16;;;;;;;7.65;3.30;;;;;;;;;;5004753;28;20026;-82
2022/03/02 14:31:52;;;;;;;11.70;4.43;;;;;;;;;;5017284;28;20030;-81
2022/03/02 14:34:18;;;;;;;7.00;3.10;;;;;;;;;;5018702;28;20045;-81
2022/03/02 14:36:44;;;;;;;7.45;3.80;;;;;;;;;;5020096;28;20022;-82